createdAt,value
2018-08-30T00:01:25.300Z,100237.94
2018-08-30T00:03:53.297Z,100237.45
2018-08-30T00:06:21.288Z,100236.78
2018-08-30T00:08:49.277Z,100235.44
2018-08-30T00:11:17.301Z,100242.48
2018-08-30T00:13:45.292Z,100245.16
2018-08-30T00:16:13.316Z,100249.69
2018-08-30T00:18:41.465Z,100250.53
2018-08-30T00:21:09.460Z,100255.55
2018-08-30T00:23:37.545Z,100264.27
2018-08-30T00:26:05.577Z,100270.65
2018-08-30T00:28:33.597Z,100269.16
2018-08-30T00:31:01.617Z,100278.38
2018-08-30T00:33:29.820Z,100285.23
2018-08-30T00:35:57.916Z,100295.80
2018-08-30T00:38:25.960Z,100299.50
2018-08-30T00:40:53.960Z,100300.50
2018-08-30T00:43:21.951Z,100301.33
2018-08-30T00:45:50.013Z,100303.67
2018-08-30T00:48:18.066Z,100307.98
2018-08-30T00:50:46.044Z,100304.66
2018-08-30T00:53:14.052Z,100311.51
2018-08-30T00:55:42.270Z,100316.03
2018-08-30T00:58:10.273Z,100317.54
2018-08-30T01:00:38.280Z,100325.34
2018-08-30T01:03:06.284Z,100324.56
2018-08-30T01:05:34.272Z,100325.70
2018-08-30T01:08:02.300Z,100316.45
2018-08-30T01:10:30.412Z,100318.75
2018-08-30T01:12:58.432Z,100327.42
2018-08-30T01:15:27.256Z,100321.70
2018-08-30T01:17:55.700Z,100322.75
2018-08-30T01:20:23.864Z,100315.30
2018-08-30T01:22:52.044Z,100318.93
2018-08-30T01:25:20.213Z,100323.08
2018-08-30T01:27:48.440Z,100312.92
2018-08-30T01:30:16.560Z,100316.61
2018-08-30T01:32:44.595Z,100320.98
2018-08-30T01:35:12.592Z,100314.47
2018-08-30T01:37:40.591Z,100315.92
2018-08-30T01:40:08.631Z,100314.87
2018-08-30T01:42:36.654Z,100323.63
2018-08-30T01:45:04.660Z,100326.26
2018-08-30T01:47:32.709Z,100330.65
2018-08-30T01:50:00.805Z,100322.94
2018-08-30T01:52:28.799Z,100330.36
2018-08-30T01:54:56.816Z,100333.31
2018-08-30T01:57:24.804Z,100340.70
2018-08-30T01:59:52.814Z,100342.55
2018-08-30T02:02:20.802Z,100338.31
2018-08-30T02:04:48.804Z,100350.83
2018-08-30T02:07:16.808Z,100348.51
2018-08-30T02:09:44.804Z,100351.60
2018-08-30T02:12:12.828Z,100358.11
2018-08-30T02:14:40.868Z,100354.83
2018-08-30T02:17:08.861Z,100359.21
2018-08-30T02:19:36.864Z,100355.52
2018-08-30T02:22:04.893Z,100358.75
2018-08-30T02:24:32.897Z,100362.97
2018-08-30T02:27:00.901Z,100368.42
2018-08-30T02:29:28.917Z,100378.28
2018-08-30T02:31:56.906Z,100372.22
2018-08-30T02:34:24.932Z,100378.41
2018-08-30T02:36:52.941Z,100368.12
2018-08-30T02:39:20.945Z,100381.73
2018-08-30T02:41:48.945Z,100376.75
2018-08-30T02:44:16.944Z,100381.60
2018-08-30T02:46:44.944Z,100378.23
2018-08-30T02:49:12.967Z,100383.50
2018-08-30T02:51:40.958Z,100383.19
2018-08-30T02:54:08.976Z,100385.50
2018-08-30T02:56:36.972Z,100382.14
2018-08-30T02:59:04.985Z,100386.72
2018-08-30T03:01:32.976Z,100386.13
2018-08-30T03:04:01.168Z,100392.06
2018-08-30T03:06:29.204Z,100386.58
2018-08-30T03:08:57.207Z,100389.77
2018-08-30T03:11:25.213Z,100385.69
2018-08-30T03:13:53.208Z,100390.81
2018-08-30T03:16:21.222Z,100392.85
2018-08-30T03:18:49.229Z,100393.94
2018-08-30T03:21:17.263Z,100396.27
2018-08-30T03:23:45.264Z,100393.80
2018-08-30T03:26:13.287Z,100394.94
2018-08-30T03:28:41.289Z,100396.67
2018-08-30T03:31:09.340Z,100397.05
2018-08-30T03:33:37.336Z,100387.23
2018-08-30T03:36:05.353Z,100377.73
2018-08-30T03:38:33.340Z,100380.66
2018-08-30T03:41:01.356Z,100381.17
2018-08-30T03:43:29.356Z,100388.81
2018-08-30T03:45:57.461Z,100382.97
2018-08-30T03:48:25.448Z,100393.42
2018-08-30T03:50:53.473Z,100394.66
2018-08-30T03:53:21.458Z,100403.62
2018-08-30T03:55:49.501Z,100404.39
2018-08-30T03:58:17.528Z,100400.38
2018-08-30T04:00:45.532Z,100405.69
2018-08-30T04:03:13.544Z,100403.45
2018-08-30T04:05:41.561Z,100405.11
2018-08-30T04:08:09.552Z,100406.83
2018-08-30T04:10:37.612Z,100410.39
2018-08-30T04:13:05.613Z,100407.92
2018-08-30T04:15:33.761Z,100413.25
2018-08-30T04:18:01.797Z,100416.31
2018-08-30T04:20:29.829Z,100420.62
2018-08-30T04:22:57.836Z,100416.98
2018-08-30T04:25:25.856Z,100417.02
2018-08-30T04:27:53.875Z,100418.95
2018-08-30T04:30:22.112Z,100423.66
2018-08-30T04:32:50.132Z,100419.75
2018-08-30T04:35:18.132Z,100424.19
2018-08-30T04:37:46.128Z,100425.72
2018-08-30T04:40:14.209Z,100416.14
2018-08-30T04:42:42.412Z,100415.48
2018-08-30T04:45:10.385Z,100422.89
2018-08-30T04:47:38.600Z,100426.52
2018-08-30T04:50:06.631Z,100429.28
2018-08-30T04:52:34.634Z,100430.56
2018-08-30T04:55:02.653Z,100432.66
2018-08-30T04:57:30.778Z,100437.39
2018-08-30T04:59:58.773Z,100441.20
2018-08-30T05:02:26.837Z,100439.62
2018-08-30T05:04:54.832Z,100441.73
2018-08-30T05:07:23.605Z,100442.48
2018-08-30T05:09:51.729Z,100441.98
2018-08-30T05:12:19.755Z,100448.62
2018-08-30T05:14:47.777Z,100448.73
2018-08-30T05:17:15.784Z,100450.70
2018-08-30T05:19:43.806Z,100452.66
2018-08-30T05:22:12.001Z,100455.57
2018-08-30T05:24:39.992Z,100450.92
2018-08-30T05:27:08.000Z,100457.39
2018-08-30T05:29:37.029Z,100452.05
2018-08-30T05:32:05.041Z,100452.80
2018-08-30T05:34:33.841Z,100448.50
2018-08-30T05:37:01.873Z,100449.12
2018-08-30T05:39:30.065Z,100464.55
2018-08-30T05:41:58.286Z,100463.06
2018-08-30T05:44:26.330Z,100464.93
2018-08-30T05:46:54.563Z,100458.79
2018-08-30T05:49:22.619Z,100464.84
2018-08-30T05:51:50.628Z,100470.58
2018-08-30T05:54:18.681Z,100470.91
2018-08-30T05:56:46.709Z,100475.97
2018-08-30T05:59:20.617Z,100474.39
2018-08-30T06:01:48.721Z,100480.04
2018-08-30T06:04:17.796Z,100476.80
2018-08-30T06:06:45.882Z,100479.48
2018-08-30T06:09:13.976Z,100487.08
2018-08-30T06:11:42.002Z,100481.02
2018-08-30T06:14:10.356Z,100485.97
2018-08-30T06:16:38.598Z,100486.68
2018-08-30T06:19:06.581Z,100492.25
2018-08-30T06:21:34.712Z,100494.41
2018-08-30T06:24:02.819Z,100501.00
2018-08-30T06:26:30.896Z,100504.34
2018-08-30T06:28:58.995Z,100504.98
2018-08-30T06:31:27.113Z,100505.69
2018-08-30T06:33:55.120Z,100510.95
2018-08-30T06:36:23.108Z,100509.78
2018-08-30T06:38:51.351Z,100510.20
2018-08-30T06:41:19.296Z,100509.09
2018-08-30T06:43:47.365Z,100516.36
2018-08-30T06:46:15.356Z,100516.11
2018-08-30T06:48:43.510Z,100528.94
2018-08-30T06:51:11.435Z,100527.15
2018-08-30T06:53:39.420Z,100529.47
2018-08-30T06:56:07.420Z,100530.80
2018-08-30T06:58:35.505Z,100532.81
2018-08-30T07:01:03.435Z,100536.23
2018-08-30T07:03:31.444Z,100541.74
2018-08-30T07:05:59.475Z,100542.08
2018-08-30T07:08:27.564Z,100539.84
2018-08-30T07:10:55.696Z,100544.97
2018-08-30T07:13:23.780Z,100543.13
2018-08-30T07:15:51.785Z,100541.25
2018-08-30T07:18:19.808Z,100543.63
2018-08-30T07:20:48.084Z,100551.14
2018-08-30T07:23:16.072Z,100555.00
2018-08-30T07:25:44.100Z,100556.76
2018-08-30T07:28:12.132Z,100556.59
2018-08-30T07:30:40.121Z,100565.11
2018-08-30T07:33:08.126Z,100562.11
2018-08-30T07:35:36.221Z,100566.39
2018-08-30T07:38:04.243Z,100569.73
2018-08-30T07:40:32.257Z,100571.30
2018-08-30T07:43:00.336Z,100565.11
2018-08-30T07:45:28.380Z,100563.75
2018-08-30T07:47:56.385Z,100567.97
2018-08-30T07:50:24.396Z,100568.38
2018-08-30T07:52:52.412Z,100566.10
2018-08-30T07:55:20.604Z,100569.64
2018-08-30T07:57:48.613Z,100572.92
2018-08-30T08:00:17.366Z,100574.95
2018-08-30T08:02:47.244Z,100588.77
2018-08-30T08:05:15.445Z,100579.86
2018-08-30T08:07:43.480Z,100579.96
2018-08-30T08:10:11.465Z,100578.85
2018-08-30T08:12:39.492Z,100582.46
2018-08-30T08:15:07.457Z,100583.19
2018-08-30T08:17:35.457Z,100589.92
2018-08-30T08:20:03.469Z,100587.53
2018-08-30T08:27:18.483Z,100589.27
2018-08-30T08:29:46.481Z,100597.41
2018-08-30T08:32:14.460Z,100593.16
2018-08-30T08:34:42.452Z,100599.39
2018-08-30T08:37:10.541Z,100603.02
2018-08-30T08:39:38.629Z,100603.33
2018-08-30T08:42:06.788Z,100600.48
2018-08-30T08:44:34.801Z,100605.08
2018-08-30T08:47:02.800Z,100605.52
2018-08-30T08:49:30.844Z,100611.92
2018-08-30T08:51:58.832Z,100611.70
2018-08-30T08:54:26.828Z,100618.11
2018-08-30T08:56:54.855Z,100611.42
2018-08-30T08:59:22.842Z,100619.84
2018-08-30T09:01:50.840Z,100619.19
2018-08-30T09:04:18.847Z,100618.83
2018-08-30T09:06:46.869Z,100613.70
2018-08-30T09:09:14.888Z,100624.72
2018-08-30T09:11:43.246Z,100631.09
2018-08-30T09:14:11.428Z,100622.61
2018-08-30T09:16:39.481Z,100624.52
2018-08-30T09:19:07.732Z,100622.16
2018-08-30T09:21:35.741Z,100626.87
2018-08-30T09:24:03.809Z,100627.65
2018-08-30T09:26:31.844Z,100629.52
2018-08-30T09:28:59.868Z,100634.12
2018-08-30T09:31:27.888Z,100637.03
2018-08-30T09:33:56.108Z,100637.56
2018-08-30T09:36:24.146Z,100644.63
2018-08-30T09:38:52.173Z,100643.02
2018-08-30T09:41:20.342Z,100636.02
2018-08-30T09:43:48.401Z,100640.44
2018-08-30T09:46:16.381Z,100643.81
2018-08-30T09:48:44.389Z,100643.19
2018-08-30T09:51:12.392Z,100648.84
2018-08-30T09:53:40.495Z,100646.38
2018-08-30T09:56:08.553Z,100649.98
2018-08-30T09:58:36.577Z,100646.34
2018-08-30T10:01:10.085Z,100650.37
2018-08-30T10:03:38.099Z,100658.14
2018-08-30T10:06:06.108Z,100651.13
2018-08-30T10:08:34.204Z,100652.84
2018-08-30T10:11:02.242Z,100659.00
2018-08-30T10:13:30.313Z,100651.63
2018-08-30T10:15:58.384Z,100658.52
2018-08-30T10:18:26.304Z,100662.73
2018-08-30T10:20:54.340Z,100665.14
2018-08-30T10:23:22.329Z,100658.41
2018-08-30T10:25:50.337Z,100661.27
2018-08-30T10:28:18.331Z,100659.43
2018-08-30T10:30:46.368Z,100664.34
2018-08-30T10:33:14.408Z,100663.59
2018-08-30T10:35:42.456Z,100668.55
2018-08-30T10:38:10.449Z,100673.59
2018-08-30T10:40:38.692Z,100674.67
2018-08-30T10:43:06.681Z,100683.00
2018-08-30T10:45:34.705Z,100681.03
2018-08-30T10:48:02.698Z,100678.58
2018-08-30T10:50:30.694Z,100682.42
2018-08-30T10:52:58.745Z,100689.03
2018-08-30T10:55:26.745Z,100695.37
2018-08-30T10:57:54.751Z,100697.08
2018-08-30T11:00:22.784Z,100700.54
2018-08-30T11:02:50.793Z,100706.89
2018-08-30T11:05:18.828Z,100710.12
2018-08-30T11:07:46.898Z,100697.27
2018-08-30T11:10:15.049Z,100701.75
2018-08-30T11:12:43.125Z,100712.54
2018-08-30T11:15:11.132Z,100708.97
2018-08-30T11:17:39.140Z,100712.99
2018-08-30T11:20:07.152Z,100711.80
2018-08-30T11:22:35.137Z,100717.86
2018-08-30T11:25:03.194Z,100716.44
2018-08-30T11:27:31.368Z,100717.59
2018-08-30T11:29:59.400Z,100715.75
2018-08-30T11:32:27.392Z,100711.48
2018-08-30T11:34:55.392Z,100717.36
2018-08-30T11:37:23.469Z,100720.89
2018-08-30T11:39:51.488Z,100728.62
2018-08-30T11:42:19.714Z,100723.77
2018-08-30T11:44:47.693Z,100726.25
2018-08-30T11:47:15.684Z,100726.22
2018-08-30T11:49:43.912Z,100733.47
2018-08-30T11:52:12.018Z,100734.43
2018-08-30T11:54:40.021Z,100738.16
2018-08-30T11:57:08.045Z,100739.47
2018-08-30T11:59:36.037Z,100746.63
2018-08-30T12:02:04.094Z,100748.04
2018-08-30T12:04:32.114Z,100746.48
2018-08-30T12:07:00.140Z,100741.66
2018-08-30T12:09:28.126Z,100739.72
2018-08-30T12:11:56.124Z,100744.16
2018-08-30T12:14:24.154Z,100746.02
2018-08-30T12:16:52.216Z,100751.47
2018-08-30T12:19:20.200Z,100749.17
2018-08-30T12:21:48.224Z,100745.80
2018-08-30T12:24:16.225Z,100755.56
2018-08-30T12:26:44.280Z,100747.33
2018-08-30T12:29:12.368Z,100749.20
2018-08-30T12:31:40.431Z,100766.00
2018-08-30T12:34:08.411Z,100762.80
2018-08-30T12:36:36.499Z,100765.37
2018-08-30T12:39:05.778Z,100763.02
2018-08-30T12:41:33.820Z,100775.78
2018-08-30T12:44:01.978Z,100759.63
2018-08-30T12:46:29.961Z,100763.79
2018-08-30T12:48:58.036Z,100764.33
2018-08-30T12:51:26.211Z,100770.04
2018-08-30T12:53:54.270Z,100778.17
2018-08-30T12:56:22.482Z,100770.05
2018-08-30T12:58:55.102Z,100769.52
2018-08-30T13:01:23.119Z,100778.77
2018-08-30T13:03:51.405Z,100782.63
2018-08-30T13:06:19.904Z,100793.17
2018-08-30T13:08:48.037Z,100807.81
2018-08-30T13:11:16.071Z,100804.55
2018-08-30T13:13:44.165Z,100795.39
2018-08-30T13:16:12.097Z,100821.54
2018-08-30T13:18:40.093Z,100822.77
2018-08-30T13:21:08.229Z,100824.96
2018-08-30T13:23:36.277Z,100834.71
2018-08-30T13:26:04.466Z,100833.18
2018-08-30T13:28:32.384Z,100841.88
2018-08-30T13:31:00.429Z,100841.70
2018-08-30T13:33:28.559Z,100839.05
2018-08-30T13:35:56.489Z,100849.02
2018-08-30T13:38:24.484Z,100855.67
2018-08-30T13:40:52.714Z,100842.47
2018-08-30T13:43:20.841Z,100860.31
2018-08-30T13:45:48.808Z,100864.47
2018-08-30T13:48:16.831Z,100863.38
2018-08-30T13:50:44.775Z,100870.72
2018-08-30T13:53:13.296Z,100867.59
2018-08-30T13:55:41.390Z,100858.61
2018-08-30T13:58:09.261Z,100865.30
2018-08-30T14:00:37.424Z,100876.51
2018-08-30T14:03:05.230Z,100876.69
2018-08-30T14:05:33.369Z,100874.30
2018-08-30T14:08:01.311Z,100875.55
2018-08-30T14:10:29.521Z,100885.74
2018-08-30T14:12:57.236Z,100875.02
2018-08-30T14:15:25.465Z,100889.41
2018-08-30T14:17:53.043Z,100884.63
2018-08-30T14:20:21.109Z,100889.30
2018-08-30T14:22:49.188Z,100888.48
2018-08-30T14:25:17.192Z,100890.11
2018-08-30T14:27:45.278Z,100895.37
2018-08-30T14:30:13.343Z,100893.88
2018-08-30T14:32:41.358Z,100894.06
2018-08-30T14:35:09.353Z,100899.16
2018-08-30T14:37:37.391Z,100894.51
2018-08-30T14:40:05.457Z,100902.61
2018-08-30T14:42:33.373Z,100901.08
2018-08-30T14:45:01.380Z,100904.78
2018-08-30T14:47:29.494Z,100910.52
2018-08-30T14:49:57.432Z,100917.61
2018-08-30T14:52:25.413Z,100911.87
2018-08-30T14:54:53.405Z,100919.60
2018-08-30T14:57:21.416Z,100921.84
2018-08-30T14:59:49.402Z,100920.63
2018-08-30T15:02:17.408Z,100922.77
2018-08-30T15:04:45.396Z,100920.00
2018-08-30T15:07:13.445Z,100930.25
2018-08-30T15:09:41.468Z,100939.05
2018-08-30T15:12:09.639Z,100944.29
2018-08-30T15:14:37.580Z,100942.15
2018-08-30T15:17:05.667Z,100954.80
2018-08-30T15:19:33.692Z,100955.73
2018-08-30T15:22:01.716Z,100948.52
2018-08-30T15:24:29.713Z,100950.55
2018-08-30T15:26:57.779Z,100950.66
2018-08-30T15:29:25.821Z,100957.22
2018-08-30T15:31:53.718Z,100953.23
2018-08-30T15:34:21.708Z,100957.38
2018-08-30T15:36:49.713Z,100964.52
2018-08-30T15:39:17.754Z,100968.58
2018-08-30T15:41:45.802Z,100969.31
2018-08-30T15:44:13.849Z,100968.25
2018-08-30T15:46:41.912Z,100984.29
2018-08-30T15:49:09.910Z,100978.25
2018-08-30T15:51:37.981Z,100978.75
2018-08-30T15:54:06.193Z,100979.89
2018-08-30T15:56:34.224Z,100980.89
2018-08-30T15:59:02.371Z,100984.52
2018-08-30T16:01:30.317Z,100985.57
2018-08-30T16:03:58.333Z,100984.77
2018-08-30T16:06:26.370Z,100990.10
2018-08-30T16:08:54.433Z,100986.59
2018-08-30T16:11:22.519Z,100979.05
2018-08-30T16:13:50.565Z,100977.53
2018-08-30T16:16:18.757Z,100984.80
2018-08-30T16:18:46.870Z,100986.00
2018-08-30T16:21:14.821Z,100994.88
2018-08-30T16:23:43.017Z,100996.30
2018-08-30T16:26:11.024Z,100998.68
2018-08-30T16:28:39.100Z,101002.59
2018-08-30T16:31:07.131Z,101002.28
2018-08-30T16:33:35.147Z,101003.70
2018-08-30T16:36:03.193Z,101004.36
2018-08-30T16:38:31.176Z,101007.58
2018-08-30T16:40:59.293Z,101010.26
2018-08-30T16:43:27.330Z,101018.72
2018-08-30T16:45:55.402Z,101021.94
2018-08-30T16:48:23.395Z,101028.84
2018-08-30T16:50:51.428Z,101025.63
2018-08-30T16:53:19.462Z,101021.09
2018-08-30T16:55:47.406Z,101027.85
2018-08-30T16:58:15.416Z,101022.80
2018-08-30T17:00:43.501Z,101031.12
2018-08-30T17:03:11.549Z,101031.53
2018-08-30T17:05:39.617Z,101033.64
2018-08-30T17:08:07.672Z,101033.30
2018-08-30T17:10:35.688Z,101034.69
2018-08-30T17:13:03.702Z,101038.66
2018-08-30T17:15:32.757Z,101042.80
2018-08-30T17:18:00.768Z,101047.37
2018-08-30T17:20:34.404Z,101046.32
2018-08-30T17:23:02.391Z,101045.48
2018-08-30T17:25:30.485Z,101040.98
2018-08-30T17:27:58.645Z,101047.88
2018-08-30T17:30:26.691Z,101051.42
2018-08-30T17:32:54.685Z,101057.04
2018-08-30T17:35:22.960Z,101055.55
2018-08-30T17:37:51.004Z,101061.46
2018-08-30T17:40:19.041Z,101064.08
2018-08-30T17:42:47.384Z,101072.04
2018-08-30T17:45:15.436Z,101078.08
2018-08-30T17:47:43.597Z,101074.31
2018-08-30T17:50:11.650Z,101076.59
2018-08-30T17:52:39.606Z,101079.20
2018-08-30T17:55:07.836Z,101080.50
2018-08-30T17:57:35.895Z,101080.19
2018-08-30T18:00:05.905Z,101084.37
2018-08-30T18:02:33.904Z,101081.88
2018-08-30T18:05:01.907Z,101080.27
2018-08-30T18:07:29.900Z,101084.48
2018-08-30T18:09:57.917Z,101090.08
2018-08-30T18:12:26.293Z,101085.99
2018-08-30T18:14:54.211Z,101087.55
2018-08-30T18:17:22.208Z,101095.36
2018-08-30T18:19:50.282Z,101094.58
2018-08-30T18:22:18.289Z,101099.03
2018-08-30T18:24:46.280Z,101096.95
2018-08-30T18:27:14.294Z,101095.47
2018-08-30T18:29:42.484Z,101102.30
2018-08-30T18:32:10.512Z,101099.52
2018-08-30T18:34:38.513Z,101100.27
2018-08-30T18:37:06.653Z,101096.50
2018-08-30T18:39:34.665Z,101099.62
2018-08-30T18:42:02.684Z,101100.85
2018-08-30T18:44:30.685Z,101106.00
2018-08-30T18:46:58.692Z,101103.62
2018-08-30T18:49:26.693Z,101103.86
2018-08-30T18:51:54.684Z,101110.42
2018-08-30T18:54:22.703Z,101110.47
2018-08-30T18:56:50.721Z,101115.21
2018-08-30T18:59:18.705Z,101113.39
2018-08-30T19:01:46.764Z,101120.56
2018-08-30T19:04:14.709Z,101127.23
2018-08-30T19:06:42.713Z,101131.23
2018-08-30T19:09:11.833Z,101133.53
2018-08-30T19:11:40.318Z,101135.23
2018-08-30T19:14:08.324Z,101138.73
2018-08-30T19:16:41.917Z,101134.87
2018-08-30T19:19:12.077Z,101140.47
2018-08-30T19:21:40.200Z,101137.53
2018-08-30T19:24:12.384Z,101144.83
2018-08-30T19:26:40.592Z,101136.21
2018-08-30T19:29:08.607Z,101141.19
2018-08-30T19:31:36.676Z,101149.32
2018-08-30T19:34:04.782Z,101146.28
2018-08-30T19:36:33.116Z,101147.12
2018-08-30T19:39:02.020Z,101151.73
2018-08-30T19:41:30.139Z,101151.59
2018-08-30T19:43:58.104Z,101160.09
2018-08-30T19:46:26.110Z,101156.34
2018-08-30T19:48:54.126Z,101153.16
2018-08-30T19:51:22.165Z,101156.45
2018-08-30T19:53:50.198Z,101160.80
2018-08-30T19:56:18.201Z,101157.29
2018-08-30T19:58:46.237Z,101153.98
2018-08-30T20:01:14.273Z,101157.64
2018-08-30T20:03:42.249Z,101154.03
2018-08-30T20:06:17.044Z,101157.53
2018-08-30T20:08:45.109Z,101158.23
2018-08-30T20:11:13.232Z,101159.77
2018-08-30T20:13:41.324Z,101161.91
2018-08-30T20:16:09.460Z,101160.79
2018-08-30T20:18:37.509Z,101171.24
2018-08-30T20:21:05.541Z,101169.97
2018-08-30T20:23:33.609Z,101167.78
2018-08-30T20:26:01.798Z,101171.20
2018-08-30T20:28:29.858Z,101170.93
2018-08-30T20:30:57.913Z,101175.77
2018-08-30T20:33:26.008Z,101174.69
2018-08-30T20:35:54.023Z,101176.51
2018-08-30T20:38:22.258Z,101175.52
2018-08-30T20:40:50.432Z,101182.76
2018-08-30T20:43:18.444Z,101180.08
2018-08-30T20:45:46.451Z,101179.23
2018-08-30T20:48:14.449Z,101182.73
2018-08-30T20:50:42.452Z,101182.24
2018-08-30T20:53:10.539Z,101180.70
2018-08-30T20:55:38.570Z,101182.11
2018-08-30T20:58:06.691Z,101179.69
2018-08-30T21:00:34.695Z,101181.63
2018-08-30T21:03:02.796Z,101185.75
2018-08-30T21:05:30.836Z,101182.28
2018-08-30T21:07:58.880Z,101186.85
2018-08-30T21:10:26.908Z,101197.66
2018-08-30T21:12:54.909Z,101190.74
2018-08-30T21:15:22.946Z,101195.06
2018-08-30T21:17:50.948Z,101193.41
2018-08-30T21:20:18.947Z,101192.27
2018-08-30T21:22:47.004Z,101197.55
2018-08-30T21:25:15.000Z,101200.80
2018-08-30T21:27:43.074Z,101203.27
2018-08-30T21:30:11.113Z,101206.68
2018-08-30T21:32:39.113Z,101204.99
2018-08-30T21:35:07.169Z,101204.49
2018-08-30T21:37:35.176Z,101201.44
2018-08-30T21:40:03.213Z,101198.65
2018-08-30T21:42:31.284Z,101201.89
2018-08-30T21:44:59.307Z,101203.10
2018-08-30T21:47:27.298Z,101200.61
2018-08-30T21:49:55.421Z,101206.34
2018-08-30T21:52:23.429Z,101206.56
2018-08-30T21:54:51.438Z,101199.09
2018-08-30T21:57:19.561Z,101196.60
2018-08-30T21:59:47.592Z,101196.43
2018-08-30T22:02:15.625Z,101199.58
2018-08-30T22:04:43.613Z,101197.57
2018-08-30T22:07:11.609Z,101201.51
2018-08-30T22:09:39.608Z,101202.67
2018-08-30T22:12:07.618Z,101205.11
2018-08-30T22:14:35.621Z,101200.64
2018-08-30T22:17:03.716Z,101206.44
2018-08-30T22:19:31.824Z,101204.14
2018-08-30T22:21:59.821Z,101201.75
2018-08-30T22:24:27.855Z,101201.08
2018-08-30T22:26:55.902Z,101195.27
2018-08-30T22:29:23.941Z,101198.02
2018-08-30T22:31:51.979Z,101196.78
2018-08-30T22:34:20.140Z,101192.30
2018-08-30T22:36:48.137Z,101195.80
2018-08-30T22:39:16.144Z,101198.82
2018-08-30T22:41:44.120Z,101192.03
2018-08-30T22:44:12.128Z,101192.48
2018-08-30T22:46:40.129Z,101190.25
2018-08-30T22:49:08.134Z,101190.95
2018-08-30T22:51:36.189Z,101192.70
2018-08-30T22:54:04.253Z,101189.02
2018-08-30T22:56:32.240Z,101188.03
2018-08-30T22:59:00.524Z,101191.89
2018-08-30T23:01:28.529Z,101187.77
2018-08-30T23:03:56.541Z,101186.17
2018-08-30T23:06:24.537Z,101187.23
2018-08-30T23:08:52.529Z,101187.27
2018-08-30T23:11:20.524Z,101183.44
2018-08-30T23:13:48.568Z,101185.96
2018-08-30T23:16:16.595Z,101182.19
2018-08-30T23:18:44.603Z,101180.42
2018-08-30T23:21:12.627Z,101187.94
2018-08-30T23:23:40.627Z,101187.55
2018-08-30T23:26:08.616Z,101183.52
2018-08-30T23:28:36.660Z,101185.96
2018-08-30T23:31:04.688Z,101187.43
2018-08-30T23:33:32.769Z,101189.42
2018-08-30T23:36:00.787Z,101192.17
2018-08-30T23:38:28.773Z,101200.25
2018-08-30T23:40:56.761Z,101195.40
2018-08-30T23:43:24.805Z,101195.82
2018-08-30T23:45:52.818Z,101196.88
2018-08-30T23:48:20.816Z,101196.86
2018-08-30T23:50:48.824Z,101200.13
2018-08-30T23:53:16.822Z,101186.11
2018-08-30T23:55:44.912Z,101192.48
2018-08-30T23:58:24.424Z,101193.30
